PWSweather.com
Personal Weather Stations
Station Observations
SWHWX01
St AppolinardFR 38160

St AppolinardFR 38160

Lat: 45.191, Lon: 5.268

Elevation: 1460

Station Type: Davis Vantage Pro2 Plus

www.sweetwebhome.com/?show=wxindex

High Low Average
Temperature 62.7°F17.1°F 50.3°F10.2°F 56.8°F13.8°F
Dew Point 52.9°F11.6°F 43.8°F6.6°F 49.7°F9.8°F
Winds 8.2 mph -13.2 mph - Calm Calm 3.1 mph 5.0 mph
Wind Gusts 11.0 mph17.7 mph -- 5.0 mph8.0 mph
Humidity 92% 54% 78%
Pressure 29.54 in1000.30 in 29.44 in997.00 in -
Precipitation 0.05 in1.30 in - -
Hour Temp Dew Point Humidity Winds Wind Gusts Pressure Precip Precip Rate Daily Precip Total
12:00 AM 60.5°F15.8°C 43.8°F6.6°C 54% 6.1 mph WSW9.8 kmh WSW 10.0 mph16.1 kmh 29.49 in998.6 mb - 0.00 in0.0 mm 0.00 in0.0 mm
12:30 AM 59.8°F15.4°C 44.1°F6.7°C 56% 7.1 mph WSW11.4 kmh WSW 11.0 mph17.7 kmh 29.49 in998.6 mb - 0.00 in0.0 mm 0.00 in0.0 mm
01:00 AM 59.0°F15.0°C 44.7°F7.1°C 59% 5.6 mph SW9.0 kmh SW 9.0 mph14.5 kmh 29.49 in998.6 mb - 0.00 in0.0 mm 0.00 in0.0 mm
01:30 AM 58.4°F14.7°C 45.0°F7.2°C 61% 4.3 mph SW6.9 kmh SW 11.0 mph17.7 kmh 29.48 in998.3 mb - 0.00 in0.0 mm 0.00 in0.0 mm
02:00 AM 57.8°F14.3°C 45.3°F7.4°C 63% 3.3 mph SW5.3 kmh SW 6.0 mph9.7 kmh 29.48 in998.3 mb - 0.00 in0.0 mm 0.00 in0.0 mm
02:30 AM 57.0°F13.9°C 46.2°F7.9°C 67% 2.2 mph WSW3.5 kmh WSW 6.0 mph9.7 kmh 29.48 in998.3 mb - 0.00 in0.0 mm 0.00 in0.0 mm
03:00 AM 56.8°F13.8°C 46.0°F7.8°C 67% 0.5 mph WSW0.8 kmh WSW 3.0 mph4.8 kmh 29.47 in998.0 mb - 0.00 in0.0 mm 0.00 in0.0 mm
03:30 AM 56.4°F13.6°C 46.0°F7.8°C 68% 2.2 mph WSW3.5 kmh WSW 6.0 mph9.7 kmh 29.47 in998.0 mb - 0.00 in0.0 mm 0.00 in0.0 mm
04:00 AM 55.7°F13.2°C 46.1°F7.8°C 70% 2.5 mph WSW4.0 kmh WSW 3.0 mph4.8 kmh 29.45 in997.3 mb - 0.00 in0.0 mm 0.00 in0.0 mm
04:30 AM 55.3°F12.9°C 46.1°F7.8°C 71% 2.9 mph WSW4.7 kmh WSW 5.0 mph8.0 kmh 29.45 in997.3 mb - 0.00 in0.0 mm 0.00 in0.0 mm
05:00 AM 54.0°F12.2°C 47.0°F8.3°C 77% 2.3 mph WSW3.7 kmh WSW 3.0 mph4.8 kmh 29.44 in997.0 mb - 0.00 in0.0 mm 0.00 in0.0 mm
05:30 AM 53.3°F11.8°C 47.3°F8.5°C 80% Calm Calm -- 29.44 in997.0 mb - 0.01 in0.3 mm 0.01 in0.3 mm
06:00 AM 52.4°F11.3°C 47.7°F8.7°C 84% 0.9 mph WSW1.4 kmh WSW 2.0 mph3.2 kmh 29.45 in997.3 mb - 0.01 in0.3 mm 0.02 in0.5 mm
06:30 AM 51.3°F10.7°C 48.2°F9.0°C 89% 0.9 mph WSW1.4 kmh WSW 2.0 mph3.2 kmh 29.45 in997.3 mb - 0.02 in0.5 mm 0.03 in0.8 mm
07:00 AM 50.8°F10.4°C 48.3°F9.1°C 91% 1.3 mph WSW2.1 kmh WSW 3.0 mph4.8 kmh 29.45 in997.3 mb - 0.00 in0.0 mm 0.03 in0.8 mm
07:30 AM 50.3°F10.2°C 48.1°F8.9°C 92% Calm Calm -- 29.46 in997.6 mb - 0.00 in0.0 mm 0.03 in0.8 mm
08:00 AM 50.6°F10.3°C 48.4°F9.1°C 92% 0.1 mph WSW0.2 kmh WSW 1.0 mph1.6 kmh 29.46 in997.6 mb - 0.00 in0.0 mm 0.03 in0.8 mm
08:30 AM 51.8°F11.0°C 49.0°F9.4°C 90% Calm Calm -- 29.46 in997.6 mb - 0.00 in0.0 mm 0.03 in0.8 mm
09:00 AM 52.5°F11.4°C 49.3°F9.6°C 89% Calm Calm -- 29.46 in997.6 mb - 0.00 in0.0 mm 0.03 in0.8 mm
09:30 AM 52.7°F11.5°C 49.5°F9.7°C 89% 0.7 mph SW1.1 kmh SW 1.0 mph1.6 kmh 29.46 in997.6 mb - 0.01 in0.3 mm 0.04 in1.0 mm
10:00 AM 53.7°F12.1°C 51.1°F10.6°C 91% 3.4 mph SW5.5 kmh SW 4.0 mph6.4 kmh 29.45 in997.3 mb - 0.00 in0.0 mm 0.04 in1.0 mm
10:30 AM 54.7°F12.6°C 51.5°F10.8°C 89% 0.9 mph S1.4 kmh S 3.0 mph4.8 kmh 29.45 in997.3 mb - 0.00 in0.0 mm 0.04 in1.0 mm
11:00 AM 56.4°F13.6°C 52.5°F11.4°C 87% 1.6 mph ESE2.6 kmh ESE 3.0 mph4.8 kmh 29.45 in997.3 mb - 0.00 in0.0 mm 0.04 in1.0 mm
11:30 AM 57.4°F14.1°C 51.9°F11.1°C 82% 2.7 mph SE4.3 kmh SE 6.0 mph9.7 kmh 29.45 in997.3 mb - 0.00 in0.0 mm 0.04 in1.0 mm
12:00 PM 59.5°F15.3°C 52.3°F11.3°C 77% 0.9 mph SSE1.4 kmh SSE 2.0 mph3.2 kmh 29.45 in997.3 mb - 0.00 in0.0 mm 0.04 in1.0 mm
12:30 PM 60.8°F16.0°C 52.9°F11.6°C 75% 3.4 mph SSE5.5 kmh SSE 7.0 mph11.3 kmh 29.44 in997.0 mb - 0.00 in0.0 mm 0.04 in1.0 mm
01:00 PM 62.2°F16.8°C 52.7°F11.5°C 71% 2.7 mph SSE4.3 kmh SSE 3.0 mph4.8 kmh 29.44 in997.0 mb - 0.00 in0.0 mm 0.04 in1.0 mm
01:30 PM 62.7°F17.1°C 52.0°F11.1°C 68% 3.5 mph S5.6 kmh S 4.0 mph6.4 kmh 29.44 in997.0 mb - 0.00 in0.0 mm 0.04 in1.0 mm
02:00 PM 62.5°F16.9°C 49.3°F9.6°C 62% 1.5 mph SW2.4 kmh SW 6.0 mph9.7 kmh 29.45 in997.3 mb - 0.00 in0.0 mm 0.04 in1.0 mm
02:30 PM 62.1°F16.7°C 50.6°F10.3°C 66% 5.0 mph SW8.0 kmh SW 8.0 mph12.9 kmh 29.45 in997.3 mb - 0.00 in0.0 mm 0.04 in1.0 mm
03:00 PM 61.7°F16.5°C 50.6°F10.3°C 67% 5.2 mph S8.4 kmh S 7.0 mph11.3 kmh 29.44 in997.0 mb - 0.00 in0.0 mm 0.04 in1.0 mm
03:30 PM 61.0°F16.1°C 51.1°F10.6°C 70% 3.0 mph SW4.8 kmh SW 4.0 mph6.4 kmh 29.44 in997.0 mb - 0.00 in0.0 mm 0.04 in1.0 mm
04:00 PM 60.5°F15.8°C 50.7°F10.4°C 70% 3.9 mph SW6.3 kmh SW 6.0 mph9.7 kmh 29.45 in997.3 mb - 0.00 in0.0 mm 0.04 in1.0 mm
04:30 PM 60.0°F15.6°C 50.9°F10.5°C 72% 2.6 mph SW4.2 kmh SW 3.0 mph4.8 kmh 29.44 in997.0 mb - 0.00 in0.0 mm 0.04 in1.0 mm
05:00 PM 59.8°F15.4°C 51.1°F10.6°C 73% 4.6 mph WSW7.4 kmh WSW 5.0 mph8.0 kmh 29.44 in997.0 mb - 0.00 in0.0 mm 0.04 in1.0 mm
05:30 PM 60.2°F15.7°C 52.2°F11.2°C 75% 0.6 mph SSW1.0 kmh SSW 9.0 mph14.5 kmh 29.45 in997.3 mb - 0.00 in0.0 mm 0.04 in1.0 mm
06:00 PM 59.4°F15.2°C 52.2°F11.2°C 77% 3.5 mph WSW5.6 kmh WSW 5.0 mph8.0 kmh 29.45 in997.3 mb - 0.00 in0.0 mm 0.04 in1.0 mm
06:30 PM 59.9°F15.5°C 52.7°F11.5°C 77% 4.5 mph SW7.2 kmh SW 6.0 mph9.7 kmh 29.46 in997.6 mb - 0.00 in0.0 mm 0.04 in1.0 mm
07:00 PM 58.1°F14.5°C 52.3°F11.3°C 81% 6.3 mph SSW10.1 kmh SSW 8.0 mph12.9 kmh 29.47 in998.0 mb - 0.00 in0.0 mm 0.04 in1.0 mm
07:30 PM 57.3°F14.1°C 52.2°F11.2°C 83% 8.2 mph WSW13.2 kmh WSW 10.0 mph16.1 kmh 29.48 in998.3 mb - 0.00 in0.0 mm 0.04 in1.0 mm
08:00 PM 56.5°F13.6°C 52.0°F11.1°C 85% 3.6 mph SW5.8 kmh SW 5.0 mph8.0 kmh 29.49 in998.6 mb - 0.00 in0.0 mm 0.04 in1.0 mm
08:30 PM 55.8°F13.2°C 52.3°F11.3°C 88% 6.1 mph SW9.8 kmh SW 9.0 mph14.5 kmh 29.50 in999.0 mb - 0.00 in0.0 mm 0.04 in1.0 mm
09:00 PM 55.2°F12.9°C 52.0°F11.1°C 89% 3.3 mph SW5.3 kmh SW 4.0 mph6.4 kmh 29.51 in999.3 mb - 0.00 in0.0 mm 0.04 in1.0 mm
09:30 PM 54.6°F12.6°C 52.0°F11.1°C 91% 6.7 mph SW10.8 kmh SW 8.0 mph12.9 kmh 29.52 in999.7 mb - 0.00 in0.0 mm 0.04 in1.0 mm
10:00 PM 54.4°F12.4°C 52.1°F11.2°C 92% 6.8 mph SW10.9 kmh SW 10.0 mph16.1 kmh 29.53 in1000.0 mb - 0.00 in0.0 mm 0.04 in1.0 mm
10:30 PM 54.3°F12.4°C 52.0°F11.1°C 92% 3.1 mph SW5.0 kmh SW 4.0 mph6.4 kmh 29.53 in1000.0 mb - 0.00 in0.0 mm 0.04 in1.0 mm
11:00 PM 54.2°F12.3°C 51.9°F11.1°C 92% 4.8 mph WSW7.7 kmh WSW 8.0 mph12.9 kmh 29.54 in1000.3 mb - 0.00 in0.0 mm 0.05 in1.3 mm
11:30 PM 54.1°F12.3°C 51.2°F10.7°C 90% 1.3 mph W2.1 kmh W 3.0 mph4.8 kmh 29.54 in1000.3 mb - 0.00 in0.0 mm 0.05 in1.3 mm